Andrews Bridge, Pennsylvania
Current Conditions -  °F | °C
As of 11:15 AM on Thursday 29 Jan 2015 (Local Time) from KMQS Reporting Station
Clear Clear  
Wind Chill: 24°   Ceiling: Unl
Heat Index: 30°   Visibility: 10mi
Dew Point:   Wind: 6mph
Humidity: 40%   Direction: 130°SE
Pressure: 30.25"   Gusts: NA
Location:  39.9118°N, 76.0265°W
Report Text: KMQS 291615Z AUTO 13005KT 10SM CLR M01/M13 A3025 RMK AO2
Loading
Personal Weather Stations






























Interactive Weather Map New forecast layout! Learn more

10-Day Weather Forecast

Advertisements
Track Severe Weather on mobile